Hudsonville, Michigan
Current Conditions -  °F | °C
As of 5:53 AM on Thursday 23 Oct 2014 (Local Time) from KGRR Reporting Station
Moderate Fog Moderate Fog  
Wind Chill: 30°   Ceiling: 100
Heat Index: 30°   Visibility: 0.5mi
Dew Point: 28°   Wind: 0mph
Humidity: 92%   Direction: NA
Pressure: 30.25"   Gusts: NA
Location:  42.88°N, 85.85°W
Report Text: KGRR 230953Z 00000KT 1/2SM R26L/1800V2600FT FZFG VV001 M01/M02 A3025 RMK AO2 SLP251 I1001 T10111022
Loading
Personal Weather Stations






























Interactive Weather Map
Tropical Storm Tracking
New forecast layout! Learn more

10-Day Weather Forecast

Advertisements
Track Severe Weather on mobile